createdAt,value
2018-03-14T00:00:47.928Z,80.52
2018-03-14T00:03:16.551Z,80.84
2018-03-14T00:05:50.003Z,81.33
2018-03-14T00:08:18.545Z,80.50
2018-03-14T00:10:47.105Z,80.71
2018-03-14T00:13:15.672Z,80.83
2018-03-14T00:15:44.225Z,81.81
2018-03-14T00:18:14.003Z,81.39
2018-03-14T00:20:42.595Z,81.38
2018-03-14T00:23:13.764Z,81.36
2018-03-14T00:25:42.311Z,81.48
2018-03-14T00:28:10.957Z,81.40
2018-03-14T00:30:39.513Z,81.49
2018-03-14T00:33:10.563Z,81.64
2018-03-14T00:35:39.230Z,81.98
2018-03-14T00:38:07.800Z,82.05
2018-03-14T00:40:38.344Z,81.81
2018-03-14T00:43:06.888Z,82.59
2018-03-14T00:45:35.571Z,82.92
2018-03-14T00:48:10.549Z,82.31
2018-03-14T00:50:39.058Z,81.55
2018-03-14T00:53:07.933Z,82.16
2018-03-14T00:58:08.630Z,82.50
2018-03-14T01:00:37.230Z,82.41
2018-03-14T01:03:05.820Z,82.19
2018-03-14T01:05:34.814Z,82.74
2018-03-14T01:08:03.489Z,82.31
2018-03-14T01:10:32.019Z,81.76
2018-03-14T01:13:00.565Z,82.04
2018-03-14T01:15:29.454Z,81.70
2018-03-14T01:17:58.217Z,81.96
2018-03-14T01:20:26.733Z,81.55
2018-03-14T01:22:55.232Z,81.41
2018-03-14T01:25:25.280Z,81.41
2018-03-14T01:27:53.874Z,81.55
2018-03-14T01:30:22.479Z,81.92
2018-03-14T01:32:50.997Z,81.64
2018-03-14T01:35:19.590Z,82.15
2018-03-14T01:37:48.131Z,81.75
2018-03-14T01:40:21.540Z,81.64
2018-03-14T01:42:50.107Z,81.81
2018-03-14T01:45:18.680Z,82.26
2018-03-14T01:47:47.192Z,82.54
2018-03-14T01:50:16.175Z,82.93
2018-03-14T01:52:44.751Z,83.37
2018-03-14T01:55:13.407Z,83.01
2018-03-14T01:57:41.932Z,83.31
2018-03-14T02:00:11.803Z,83.13
2018-03-14T02:02:40.386Z,83.40
2018-03-14T02:05:09.789Z,83.03
2018-03-14T02:07:38.373Z,82.33
2018-03-14T02:10:10.985Z,82.30
2018-03-14T02:12:39.601Z,82.57
2018-03-14T02:15:09.040Z,81.92
2018-03-14T02:17:37.892Z,81.76
2018-03-14T02:20:07.581Z,81.97
2018-03-14T02:22:36.400Z,80.58
2018-03-14T02:25:05.037Z,80.29
2018-03-14T02:27:33.628Z,79.77
2018-03-14T02:30:08.576Z,80.29
2018-03-14T02:32:37.116Z,80.04
2018-03-14T02:35:06.503Z,81.87
2018-03-14T02:37:35.091Z,79.55
2018-03-14T02:40:04.912Z,77.92
2018-03-14T02:42:33.447Z,78.29
2018-03-14T02:45:01.979Z,79.75
2018-03-14T02:47:30.841Z,78.75
2018-03-14T02:49:59.349Z,78.77
2018-03-14T02:52:27.864Z,77.77
2018-03-14T02:54:56.341Z,77.89
2018-03-14T02:57:25.852Z,78.30
2018-03-14T03:00:08.397Z,79.17
2018-03-14T03:02:36.898Z,80.01
2018-03-14T03:05:05.577Z,80.39
2018-03-14T03:07:34.215Z,80.34
2018-03-14T03:10:03.071Z,79.50
2018-03-14T03:12:31.617Z,80.40
2018-03-14T03:15:00.206Z,78.81
2018-03-14T03:17:28.731Z,78.84
2018-03-14T03:19:57.625Z,79.04
2018-03-14T03:22:26.151Z,79.59
2018-03-14T03:24:54.644Z,79.33
2018-03-14T03:27:23.167Z,78.92
2018-03-14T03:29:52.164Z,78.66
2018-03-14T03:32:20.829Z,79.15
2018-03-14T03:34:49.500Z,78.69
2018-03-14T03:37:18.359Z,78.57
2018-03-14T03:40:08.449Z,79.27
2018-03-14T03:42:37.032Z,79.24
2018-03-14T03:45:07.055Z,78.67
2018-03-14T03:47:36.960Z,78.16
2018-03-14T03:50:06.581Z,78.29
2018-03-14T03:52:35.296Z,78.72
2018-03-14T03:55:03.927Z,78.18
2018-03-14T03:57:32.485Z,79.85
2018-03-14T04:00:02.616Z,78.88
2018-03-14T04:02:31.117Z,79.02
2018-03-14T04:04:59.654Z,79.84
2018-03-14T04:07:28.215Z,79.56
2018-03-14T04:09:56.766Z,79.57
2018-03-14T04:12:25.435Z,80.05
2018-03-14T04:14:55.367Z,79.79
2018-03-14T04:17:23.963Z,78.69
2018-03-14T04:19:52.639Z,80.14
2018-03-14T04:22:21.168Z,80.37
2018-03-14T04:27:26.211Z,79.93
2018-03-14T04:29:54.772Z,80.40
2018-03-14T04:32:30.848Z,79.21
2018-03-14T04:34:59.427Z,79.45
2018-03-14T04:37:27.962Z,79.15
2018-03-14T04:39:56.493Z,79.87
2018-03-14T04:42:25.492Z,80.48
2018-03-14T04:44:54.172Z,81.06
2018-03-14T04:47:22.758Z,81.02
2018-03-14T04:49:51.452Z,80.94
2018-03-14T04:52:22.523Z,81.73
2018-03-14T04:58:13.270Z,80.98
2018-03-14T05:00:45.922Z,80.46
2018-03-14T05:03:14.787Z,79.58
2018-03-14T05:05:43.448Z,80.21
2018-03-14T05:08:12.041Z,78.94
2018-03-14T05:10:41.869Z,78.79
2018-03-14T05:13:10.372Z,78.27
2018-03-14T05:15:39.008Z,78.50
2018-03-14T05:18:07.721Z,78.45
2018-03-14T05:20:36.424Z,77.77
2018-03-14T05:23:05.023Z,79.17
2018-03-14T05:25:35.941Z,78.80
2018-03-14T05:29:30.464Z,79.41
2018-03-14T05:31:59.310Z,79.78
2018-03-14T05:34:31.871Z,80.07
2018-03-14T05:37:00.583Z,80.73
2018-03-14T05:39:29.279Z,80.30
2018-03-14T05:41:57.851Z,78.96
2018-03-14T05:44:26.697Z,78.91
2018-03-14T05:46:55.312Z,79.84
2018-03-14T05:49:24.349Z,80.27
2018-03-14T05:51:52.936Z,81.02
2018-03-14T05:54:22.875Z,81.47
2018-03-14T05:56:52.114Z,81.66
2018-03-14T05:59:20.798Z,81.97
2018-03-14T06:01:49.590Z,82.09
2018-03-14T06:04:22.796Z,82.31
2018-03-14T06:06:51.399Z,83.06
2018-03-14T06:09:20.004Z,83.34
2018-03-14T06:11:48.598Z,83.31
2018-03-14T06:14:19.078Z,83.39
2018-03-14T06:16:48.003Z,82.96
2018-03-14T06:19:16.865Z,83.19
2018-03-14T06:21:46.940Z,82.45
2018-03-14T06:24:16.806Z,82.20
2018-03-14T06:26:45.419Z,82.20
2018-03-14T06:29:13.983Z,81.72
2018-03-14T06:31:42.514Z,81.06
2018-03-14T06:34:11.054Z,81.53
2018-03-14T06:36:39.601Z,80.99
2018-03-14T06:39:08.178Z,80.67
2018-03-14T06:41:38.259Z,80.41
2018-03-14T06:44:07.789Z,80.40
2018-03-14T06:46:36.928Z,80.53
2018-03-14T06:49:07.096Z,80.67
2018-03-14T06:51:41.317Z,80.61
2018-03-14T06:54:10.997Z,80.48
2018-03-14T06:56:40.907Z,80.76
2018-03-14T07:01:24.950Z,80.16
2018-03-14T07:04:04.674Z,80.21
2018-03-14T07:06:33.221Z,79.79
2018-03-14T07:09:02.032Z,80.44
2018-03-14T07:11:30.480Z,80.30
2018-03-14T07:13:58.983Z,79.64
2018-03-14T07:16:27.904Z,79.22
2018-03-14T07:18:56.569Z,78.90
2018-03-14T07:21:25.180Z,78.07
2018-03-14T07:23:54.003Z,76.98
2018-03-14T07:26:23.023Z,77.15
2018-03-14T07:28:59.297Z,77.06
2018-03-14T07:31:28.775Z,74.44
2018-03-14T07:33:59.676Z,72.08
2018-03-14T07:36:29.377Z,70.18
2018-03-14T07:38:58.500Z,70.38
2018-03-14T07:41:27.676Z,69.51
2018-03-14T07:43:56.526Z,68.17
2018-03-14T07:46:26.502Z,68.31
2018-03-14T07:49:00.312Z,68.92
2018-03-14T07:51:30.163Z,65.55
2018-03-14T07:53:58.721Z,65.22
2018-03-14T07:56:27.339Z,65.36
2018-03-14T07:58:56.020Z,65.51
2018-03-14T08:01:24.573Z,65.51
2018-03-14T08:03:53.240Z,64.05
2018-03-14T08:06:22.075Z,63.98
2018-03-14T08:08:50.619Z,63.91
2018-03-14T08:11:19.164Z,63.21
2018-03-14T08:13:48.358Z,63.53
2018-03-14T08:16:17.137Z,62.46
2018-03-14T08:18:46.320Z,63.19
2018-03-14T08:21:14.900Z,62.31
2018-03-14T08:23:43.498Z,62.76
2018-03-14T08:26:12.588Z,61.70
2018-03-14T08:28:41.390Z,60.61
2018-03-14T08:31:10.048Z,61.02
2018-03-14T08:33:38.631Z,60.77
2018-03-14T08:38:42.395Z,60.36
2018-03-14T08:41:10.990Z,57.72
2018-03-14T08:43:39.596Z,58.80
2018-03-14T08:46:08.122Z,57.07
2018-03-14T08:48:36.759Z,57.01
2018-03-14T08:51:06.564Z,52.35
2018-03-14T08:53:37.291Z,52.02
2018-03-14T08:56:05.986Z,50.66
2018-03-14T08:58:34.731Z,47.71
2018-03-14T09:01:03.338Z,48.37
2018-03-14T09:03:31.969Z,47.60
2018-03-14T09:06:21.101Z,47.94
2018-03-14T09:09:07.088Z,47.32
2018-03-14T09:25:12.437Z,49.21
2018-03-14T09:27:41.141Z,47.86
2018-03-14T09:30:10.407Z,44.99
2018-03-14T09:32:39.147Z,46.30
2018-03-14T09:35:08.336Z,46.55
2018-03-14T09:37:37.482Z,45.84
2018-03-14T09:40:06.350Z,41.12
2018-03-14T09:42:34.938Z,39.60
2018-03-14T09:45:03.613Z,35.84
2018-03-14T09:47:32.118Z,34.33
2018-03-14T09:50:04.972Z,32.73
2018-03-14T09:52:33.485Z,37.34
2018-03-14T09:55:02.103Z,34.32
2018-03-14T09:57:30.660Z,32.59
2018-03-14T09:59:59.325Z,30.51
2018-03-14T10:02:27.950Z,30.18
2018-03-14T10:04:56.502Z,31.10
2018-03-14T10:07:25.364Z,29.32
2018-03-14T10:09:53.917Z,31.61
2018-03-14T10:12:22.591Z,31.64
2018-03-14T10:14:51.144Z,33.73
2018-03-14T10:17:20.070Z,34.14
2018-03-14T10:19:48.625Z,34.47
2018-03-14T10:22:17.313Z,36.11
2018-03-14T10:24:47.177Z,35.30
2018-03-14T10:27:15.655Z,37.05
2018-03-14T10:29:44.296Z,37.34
2018-03-14T10:32:12.939Z,37.03
2018-03-14T10:34:41.523Z,37.73
2018-03-14T10:37:10.208Z,38.88
2018-03-14T10:39:38.758Z,38.69
2018-03-14T10:42:07.507Z,39.57
2018-03-14T10:44:36.037Z,39.18
2018-03-14T10:47:04.645Z,37.87
2018-03-14T10:49:52.231Z,37.65
2018-03-14T10:52:20.850Z,37.72
2018-03-14T10:54:49.615Z,38.30
2018-03-14T10:57:25.117Z,38.54
2018-03-14T10:59:53.644Z,40.30
2018-03-14T11:02:23.314Z,39.75
2018-03-14T11:04:52.438Z,39.63
2018-03-14T11:07:21.356Z,39.04
2018-03-14T11:09:50.070Z,40.81
2018-03-14T11:12:18.700Z,40.64
2018-03-14T11:14:47.312Z,40.49
2018-03-14T11:17:15.859Z,40.03
2018-03-14T11:19:44.449Z,39.01
2018-03-14T11:22:14.026Z,39.21
2018-03-14T11:24:42.898Z,39.61
2018-03-14T11:27:11.569Z,40.35
2018-03-14T11:29:40.254Z,39.98
2018-03-14T11:32:10.031Z,41.36
2018-03-14T11:34:44.452Z,40.78
2018-03-14T11:37:13.235Z,40.27
2018-03-14T11:39:41.916Z,40.87
2018-03-14T11:42:10.549Z,39.50
2018-03-14T11:44:39.177Z,41.04
2018-03-14T11:47:08.076Z,41.38
2018-03-14T11:49:37.011Z,41.95
2018-03-14T11:52:05.710Z,39.98
2018-03-14T11:54:34.383Z,40.17
2018-03-14T11:57:03.071Z,41.23
2018-03-14T11:59:32.606Z,40.92
2018-03-14T12:02:01.267Z,40.53
2018-03-14T12:04:29.998Z,40.64
2018-03-14T12:06:58.968Z,40.68
2018-03-14T12:09:27.835Z,40.97
2018-03-14T12:11:56.602Z,41.11
2018-03-14T12:14:25.472Z,41.91
2018-03-14T12:16:54.459Z,41.33
2018-03-14T12:19:23.353Z,40.83
2018-03-14T12:21:52.244Z,39.62
2018-03-14T12:24:20.868Z,40.30
2018-03-14T12:26:49.587Z,41.16
2018-03-14T12:29:18.298Z,41.75
2018-03-14T12:31:46.857Z,40.13
2018-03-14T12:34:16.722Z,39.35
2018-03-14T12:36:45.178Z,39.79
2018-03-14T12:39:13.852Z,39.90
2018-03-14T12:41:42.625Z,40.27
2018-03-14T12:44:11.762Z,41.30
2018-03-14T12:46:40.222Z,41.80
2018-03-14T12:49:08.708Z,40.36
2018-03-14T12:51:45.204Z,40.37
2018-03-14T12:54:13.844Z,40.29
2018-03-14T12:56:46.616Z,40.73
2018-03-14T12:59:15.070Z,42.13
2018-03-14T13:01:43.991Z,41.36
2018-03-14T13:04:12.613Z,40.51
2018-03-14T13:06:41.312Z,40.03
2018-03-14T13:09:10.072Z,39.37
2018-03-14T13:11:38.717Z,38.79
2018-03-14T13:14:07.266Z,36.75
2018-03-14T13:16:38.419Z,35.82
2018-03-14T13:19:06.949Z,37.89
2018-03-14T13:21:35.578Z,39.37
2018-03-14T13:24:04.133Z,40.01
2018-03-14T13:26:32.663Z,40.29
2018-03-14T13:29:01.348Z,41.63
2018-03-14T13:31:29.959Z,42.11
2018-03-14T13:34:01.129Z,42.43
2018-03-14T13:36:29.685Z,42.78
2018-03-14T13:38:58.200Z,43.54
2018-03-14T13:41:27.172Z,41.92
2018-03-14T13:43:55.656Z,42.78
2018-03-14T13:46:24.195Z,42.97
2018-03-14T13:48:53.822Z,42.37
2018-03-14T13:51:22.331Z,42.54
2018-03-14T13:53:50.799Z,43.17
2018-03-14T13:56:19.403Z,43.71
2018-03-14T13:58:47.967Z,42.55
2018-03-14T14:01:16.876Z,42.99
2018-03-14T14:06:19.314Z,42.81
2018-03-14T14:08:49.338Z,42.09
2018-03-14T14:11:17.922Z,40.94
2018-03-14T14:13:46.506Z,38.48
2018-03-14T14:16:15.117Z,36.24
2018-03-14T14:18:44.118Z,34.07
2018-03-14T14:21:12.574Z,33.22
2018-03-14T14:23:41.111Z,32.42
2018-03-14T14:26:09.646Z,33.76
2018-03-14T14:28:38.885Z,32.84
2018-03-14T14:31:07.507Z,33.00
2018-03-14T14:33:36.323Z,32.41
2018-03-14T14:36:05.822Z,32.39
2018-03-14T14:38:35.143Z,31.64
2018-03-14T14:41:03.900Z,32.82
2018-03-14T14:43:32.387Z,33.39
2018-03-14T14:46:00.796Z,34.98
2018-03-14T14:48:29.556Z,35.37
2018-03-14T14:50:58.046Z,35.19
2018-03-14T14:53:26.602Z,33.69
2018-03-14T14:55:55.184Z,32.65
2018-03-14T14:58:27.691Z,32.04
2018-03-14T15:00:56.325Z,33.85
2018-03-14T15:03:24.845Z,33.97
2018-03-14T15:05:53.366Z,34.10
2018-03-14T15:08:21.975Z,33.64
2018-03-14T15:10:50.914Z,33.89
2018-03-14T15:13:21.768Z,35.81
2018-03-14T15:15:50.318Z,33.30
2018-03-14T15:18:18.905Z,31.93
2018-03-14T15:20:47.427Z,29.79
2018-03-14T15:23:15.947Z,29.73
2018-03-14T15:25:44.506Z,28.15
2018-03-14T15:28:13.053Z,28.87
2018-03-14T15:30:41.600Z,28.51
2018-03-14T15:33:10.670Z,28.01
2018-03-14T15:35:39.381Z,27.74
2018-03-14T15:38:09.230Z,27.87
2018-03-14T15:40:37.779Z,29.90
2018-03-14T15:43:06.460Z,31.07
2018-03-14T15:45:34.976Z,33.22
2018-03-14T15:48:04.613Z,33.58
2018-03-14T15:50:33.175Z,34.07
2018-03-14T15:53:01.859Z,32.33
2018-03-14T15:55:31.056Z,31.78
2018-03-14T15:58:02.139Z,31.50
2018-03-14T16:00:30.578Z,30.35
2018-03-14T16:02:59.231Z,31.67
2018-03-14T16:05:27.757Z,32.41
2018-03-14T16:07:56.295Z,33.44
2018-03-14T16:10:24.828Z,33.56
2018-03-14T16:12:53.817Z,33.41
2018-03-14T16:15:22.274Z,34.57
2018-03-14T16:17:51.336Z,36.48
2018-03-14T16:20:19.950Z,37.92
2018-03-14T16:25:10.514Z,38.22
2018-03-14T16:27:39.074Z,38.75
2018-03-14T16:30:08.539Z,38.31
2018-03-14T16:32:37.308Z,38.81
2018-03-14T16:35:05.821Z,40.93
2018-03-14T16:37:34.753Z,41.35
2018-03-14T16:40:04.241Z,42.30
2018-03-14T16:42:40.209Z,42.30
2018-03-14T16:45:10.236Z,44.16
2018-03-14T16:47:38.941Z,45.24
2018-03-14T16:50:12.080Z,45.49
2018-03-14T16:52:40.780Z,45.84
2018-03-14T16:55:10.080Z,46.79
2018-03-14T16:57:50.284Z,46.89
2018-03-14T17:00:18.867Z,47.14
2018-03-14T17:02:47.441Z,48.04
2018-03-14T17:05:15.963Z,48.40
2018-03-14T17:07:45.228Z,49.12
2018-03-14T17:10:15.433Z,49.39
2018-03-14T17:12:44.008Z,49.35
2018-03-14T17:15:12.598Z,49.54
2018-03-14T17:17:42.526Z,50.47
2018-03-14T17:20:11.174Z,50.46
2018-03-14T17:22:39.629Z,50.75
2018-03-14T17:25:09.874Z,51.48
2018-03-14T17:27:47.527Z,51.44
2018-03-14T17:30:16.153Z,52.48
2018-03-14T17:32:44.618Z,51.85
2018-03-14T17:35:13.351Z,52.80
2018-03-14T17:37:41.832Z,52.76
2018-03-14T17:40:10.428Z,53.42
2018-03-14T17:42:39.077Z,53.24
2018-03-14T17:45:08.728Z,53.47
2018-03-14T17:47:38.118Z,53.58
2018-03-14T17:50:07.325Z,53.60
2018-03-14T17:52:35.844Z,54.48
2018-03-14T17:55:04.353Z,54.42
2018-03-14T17:57:33.095Z,54.69
2018-03-14T18:00:03.271Z,55.02
2018-03-14T18:02:35.212Z,55.62
2018-03-14T18:05:03.808Z,55.02
2018-03-14T18:07:36.871Z,55.57
2018-03-14T18:10:05.534Z,57.08
2018-03-14T18:14:58.133Z,58.03
2018-03-14T18:17:26.755Z,58.37
2018-03-14T18:19:55.363Z,58.72
2018-03-14T18:22:25.240Z,59.74
2018-03-14T18:24:54.579Z,59.10
2018-03-14T18:27:23.854Z,59.71
2018-03-14T18:29:52.824Z,59.50
2018-03-14T18:32:21.626Z,59.66
2018-03-14T18:34:50.235Z,60.30
2018-03-14T18:37:19.331Z,60.79
2018-03-14T18:39:48.204Z,61.60
2018-03-14T18:42:17.251Z,61.28
2018-03-14T18:44:46.819Z,61.54
2018-03-14T18:47:23.071Z,61.31
2018-03-14T18:49:51.920Z,62.07
2018-03-14T18:52:20.950Z,62.55
2018-03-14T18:54:49.908Z,63.11
2018-03-14T18:59:53.826Z,63.77
2018-03-14T19:02:22.903Z,63.27
2018-03-14T19:04:52.742Z,63.60
2018-03-14T19:07:21.594Z,63.87
2018-03-14T19:09:52.971Z,64.11
2018-03-14T19:12:22.360Z,64.28
2018-03-14T19:14:55.557Z,64.78
2018-03-14T19:17:28.340Z,65.29
2018-03-14T19:19:58.220Z,65.99
2018-03-14T19:22:27.119Z,65.79
2018-03-14T19:24:56.287Z,65.53
2018-03-14T19:27:28.368Z,66.35
2018-03-14T19:29:57.349Z,66.21
2018-03-14T19:32:28.421Z,66.10
2018-03-14T19:34:57.100Z,66.11
2018-03-14T19:37:25.749Z,66.49
2018-03-14T19:39:56.115Z,66.83
2018-03-14T19:42:24.806Z,67.27
2018-03-14T19:44:54.012Z,67.47
2018-03-14T19:47:22.601Z,67.54
2018-03-14T19:49:51.207Z,67.08
2018-03-14T19:52:19.839Z,67.64
2018-03-14T19:54:48.416Z,68.02
2018-03-14T19:57:17.122Z,68.01
2018-03-14T19:59:45.947Z,68.41
2018-03-14T20:02:14.976Z,68.62
2018-03-14T20:04:43.534Z,68.64
2018-03-14T20:07:13.632Z,68.77
2018-03-14T20:09:42.177Z,68.78
2018-03-14T20:12:10.897Z,68.97
2018-03-14T20:14:39.745Z,68.90
2018-03-14T20:17:08.280Z,69.06
2018-03-14T20:19:36.879Z,69.80
2018-03-14T20:22:05.518Z,69.42
2018-03-14T20:24:35.619Z,69.66
2018-03-14T20:27:04.215Z,69.19
2018-03-14T20:29:33.805Z,68.71
2018-03-14T20:32:02.598Z,69.72
2018-03-14T20:34:31.414Z,70.49
2018-03-14T20:37:00.029Z,70.56
2018-03-14T20:39:28.921Z,70.50
2018-03-14T20:41:57.623Z,70.39
2018-03-14T20:44:26.381Z,70.62
2018-03-14T20:46:55.586Z,70.90
2018-03-14T20:49:24.093Z,70.88
2018-03-14T20:51:52.642Z,71.37
2018-03-14T20:54:21.224Z,71.74
2018-03-14T20:56:50.012Z,71.91
2018-03-14T20:59:18.911Z,71.33
2018-03-14T21:01:47.596Z,71.19
2018-03-14T21:04:16.229Z,71.48
2018-03-14T21:06:45.154Z,71.96
2018-03-14T21:09:13.642Z,72.45
2018-03-14T21:11:42.120Z,71.96
2018-03-14T21:14:10.631Z,71.75
2018-03-14T21:16:40.132Z,71.55
2018-03-14T21:19:08.695Z,71.39
2018-03-14T21:21:38.351Z,71.86
2018-03-14T21:24:06.812Z,71.72
2018-03-14T21:26:35.318Z,71.81
2018-03-14T21:29:03.902Z,71.73
2018-03-14T21:31:32.433Z,71.84
2018-03-14T21:34:00.915Z,71.92
2018-03-14T21:36:34.554Z,72.59
2018-03-14T21:39:03.227Z,72.46
2018-03-14T21:41:31.895Z,72.55
2018-03-14T21:44:01.471Z,72.74
2018-03-14T21:46:29.970Z,72.28
2018-03-14T21:48:58.695Z,71.71
2018-03-14T21:51:27.178Z,71.24
2018-03-14T21:53:56.202Z,71.91
2018-03-14T21:56:43.369Z,72.36
2018-03-14T21:59:12.168Z,73.07
2018-03-14T22:01:41.369Z,72.91
2018-03-14T22:04:09.992Z,72.93
2018-03-14T22:06:38.720Z,72.95
2018-03-14T22:09:07.336Z,73.28
2018-03-14T22:11:37.343Z,72.85
2018-03-14T22:14:06.129Z,73.20
2018-03-14T22:16:34.617Z,73.42
2018-03-14T22:19:03.195Z,73.09
2018-03-14T22:21:31.891Z,72.63
2018-03-14T22:24:00.554Z,72.74
2018-03-14T22:29:03.407Z,73.09
2018-03-14T22:31:32.784Z,73.48
2018-03-14T22:34:04.125Z,73.83
2018-03-14T22:36:35.112Z,73.07
2018-03-14T22:39:04.170Z,73.39
2018-03-14T22:41:32.694Z,73.75
2018-03-14T22:44:01.324Z,73.55
2018-03-14T22:46:31.221Z,73.75
2018-03-14T22:48:59.926Z,74.22
2018-03-14T22:51:28.591Z,74.27
2018-03-14T22:53:57.380Z,74.22
2018-03-14T22:56:28.366Z,74.55
2018-03-14T22:58:57.304Z,74.54
2018-03-14T23:01:26.563Z,74.68
2018-03-14T23:03:56.509Z,74.15
2018-03-14T23:06:26.597Z,74.58
2018-03-14T23:08:55.453Z,74.95
2018-03-14T23:11:24.090Z,74.80
2018-03-14T23:13:53.934Z,74.66
2018-03-14T23:16:24.680Z,75.19
2018-03-14T23:18:54.278Z,75.18
2018-03-14T23:21:23.426Z,75.09
2018-03-14T23:23:52.452Z,74.96
2018-03-14T23:26:29.970Z,75.40
2018-03-14T23:28:58.639Z,75.52
2018-03-14T23:31:27.940Z,75.73
2018-03-14T23:33:57.134Z,76.08
2018-03-14T23:36:26.154Z,76.04
2018-03-14T23:38:54.890Z,75.88
2018-03-14T23:41:24.111Z,76.16
2018-03-14T23:43:53.022Z,75.90
2018-03-14T23:46:21.789Z,76.17
2018-03-14T23:48:50.692Z,76.64
2018-03-14T23:51:19.392Z,77.36
2018-03-14T23:53:48.355Z,77.00
2018-03-14T23:56:17.309Z,76.73
2018-03-14T23:58:46.002Z,76.56
